Aérodrome :
LOGIN :

S'inscrire | Disclaimer

   EN    FR    IT 

 










Légende :    VFR   VFR Marginal   IFR   IFR Intensif   IFR Très Intensif
Visi : 
Plafond : 
>= 8 km
>= 3000ft
5 à 8 km
1000 à 3000 ft
1500m à 5 km
500 à 1000 ft
800 à 1500m
200 à 500 ft
< 800m
< 200 ft
Symboles :   Orages  Brouillard  Fortes neiges  Fortes précipitations  Vent > 20 kt
SIGMETs :   Divers  Orages  Givrage  Turbulence  Onde Orograph.  Cendres Volcan.







- Altitude de l'aérodrome : 157 ft
- Code IATA : LIL
- Voir les cartes d'approche


LFQQ - Lille Lesquin

DERNIER METAR :
  • 181300Z AUTO 23016KT 9999 BKN044 BKN052 24/13 Q1014 TEMPO 24015G25KT

METARs EXPIRÉS :
  • 181230Z AUTO 22016KT 9999 BKN041 24/13 Q1013 TEMPO 24015G25KT
  • 181200Z AUTO 22016KT 200V260 9999 BKN039 BKN045 23/13 Q1013 TEMPO 24015G25KT
  • 181130Z AUTO 22016KT 9999 FEW003 BKN036 23/13 Q1013 TEMPO 24015G25KT
  • 181100Z AUTO 22015KT 9999 BKN033 23/13 Q1013 TEMPO 24015G25KT
  • 181030Z AUTO 22015KT 9999 BKN029 23/14 Q1013 TEMPO 24015G25KT

TAF TAF LFQQ
Valide du 18 à 12h jusqu'au 19 à 18h UTC


181100Z 1812/1918 24015KT 9999 BKN035
TEMPO 1812/1815 24015G25KT
BECMG 1818/1821 17005KT
BECMG 1907/1910 23012KT
TEMPO 1912/1915 23015G25KT
ATIS : +33 3 20 16 19 54
Pas de NOTAMs connus pour ce terrain.



MET'MAP, la Météo Aéronautique d'un coup d'oeil ! - Copyright ORBIFLY Décembre 2007 - Disclaimer

ORBIFLY MET'MAP TEAM :

Programmation & Développement : Alexandra Zaïnal
Conception & Développement : Baudouin d'Aumeries
Co-Programmation & Développement : Marc-Olivier Méhu
Soutien technique & logistique : Manuel Goepfert

Contact : metmap@orbifly.com




SOURCES & CREDITS :

   NOAA